Time;durP1;ratioP1;P1;durP2;ratioP2;P2;SDS_P1;SDS_P2;PMS_P1;PMS_P2;Temp;Humidity;BMP_temperature;BMP_pressure;BME280_temperature;BME280_humidity;BME280_pressure;Samples;Min_cycle;Max_cycle;Signal;HPM_P1;HPM_P2
2021/12/25 00:00:52;;;;;;;55.60;17.77;;;;;;;;;;5054124;28;20033;-72
2021/12/25 00:03:18;;;;;;;46.75;16.15;;;;;;;;;;5060257;28;20102;-72
2021/12/25 00:05:52;;;;;;;52.75;18.00;;;;;;;;;;5065363;28;20490;-72
2021/12/25 00:08:26;;;;;;;53.75;18.23;;;;;;;;;;5057276;28;20036;-72
2021/12/25 00:10:52;;;;;;;57.17;21.38;;;;;;;;;;5064420;28;20472;-72
2021/12/25 00:13:20;;;;;;;60.20;19.70;;;;;;;;;;5059628;28;20032;-70
2021/12/25 00:15:47;;;;;;;51.10;18.63;;;;;;;;;;5062124;28;20040;-72
2021/12/25 00:18:12;;;;;;;53.92;19.27;;;;;;;;;;5058814;28;20552;-72
2021/12/25 00:20:37;;;;;;;57.63;19.55;;;;;;;;;;5049896;28;20045;-72
2021/12/25 00:23:07;;;;;;;60.50;21.25;;;;;;;;;;5060726;28;20040;-71
2021/12/25 00:25:38;;;;;;;64.28;20.33;;;;;;;;;;5067616;28;20131;-72
2021/12/25 00:30:43;;;;;;;58.70;21.67;;;;;;;;;;5057183;28;20101;-72
2021/12/25 00:33:36;;;;;;;55.80;19.27;;;;;;;;;;5062536;28;20031;-72
2021/12/25 00:36:02;;;;;;;48.87;18.87;;;;;;;;;;5052966;28;20036;-72
2021/12/25 00:38:27;;;;;;;49.78;17.98;;;;;;;;;;5054913;28;20560;-71
2021/12/25 00:40:53;;;;;;;54.35;17.60;;;;;;;;;;5058998;28;20065;-72
2021/12/25 00:43:18;;;;;;;55.50;18.58;;;;;;;;;;5055992;28;20402;-72
2021/12/25 00:45:43;;;;;;;55.40;19.20;;;;;;;;;;5049219;28;20123;-72
2021/12/25 00:48:09;;;;;;;62.47;20.25;;;;;;;;;;5047410;28;20056;-72
2021/12/25 00:50:35;;;;;;;56.90;19.45;;;;;;;;;;5046191;28;20841;-72
2021/12/25 00:53:00;;;;;;;64.93;20.48;;;;;;;;;;5061137;28;20081;-72
2021/12/25 00:55:25;;;;;;;53.90;18.13;;;;;;;;;;5036624;28;20041;-72
2021/12/25 00:57:51;;;;;;;56.10;18.45;;;;;;;;;;5043387;28;20029;-71
2021/12/25 01:00:17;;;;;;;48.45;18.35;;;;;;;;;;5038614;28;20190;-72
2021/12/25 01:02:45;;;;;;;55.95;18.15;;;;;;;;;;5043495;28;20032;-71
2021/12/25 01:05:13;;;;;;;61.15;17.95;;;;;;;;;;5040536;28;20090;-72
2021/12/25 01:07:38;;;;;;;64.00;19.15;;;;;;;;;;5040758;28;20044;-71
2021/12/25 01:10:08;;;;;;;58.35;18.52;;;;;;;;;;5046083;28;20029;-72
2021/12/25 01:12:50;;;;;;;54.33;19.08;;;;;;;;;;5039433;28;20025;-72
2021/12/25 01:15:22;;;;;;;55.47;18.05;;;;;;;;;;5036849;28;20400;-72
2021/12/25 01:31:02;;;;;;;57.08;17.67;;;;;;;;;;5036417;28;20029;-72
2021/12/25 01:36:38;;;;;;;58.40;18.75;;;;;;;;;;5013062;28;20038;-72
2021/12/25 01:39:23;;;;;;;55.88;18.83;;;;;;;;;;5045204;28;20060;-72
2021/12/25 01:47:44;;;;;;;57.33;18.00;;;;;;;;;;5043108;28;20033;-72
2021/12/25 01:47:52;;;;;;;58.33;18.52;;;;;;;;;;5046567;28;20099;-72
2021/12/25 01:50:24;;;;;;;60.50;19.35;;;;;;;;;;5040060;28;20032;-72
2021/12/25 01:52:49;;;;;;;63.85;19.15;;;;;;;;;;5037945;28;20044;-72
2021/12/25 01:55:21;;;;;;;60.35;19.00;;;;;;;;;;5043306;28;20041;-71
2021/12/25 01:57:47;;;;;;;67.75;20.23;;;;;;;;;;5038116;28;20028;-72
2021/12/25 02:00:26;;;;;;;70.75;21.00;;;;;;;;;;5037404;28;20059;-72
2021/12/25 02:02:52;;;;;;;62.78;19.85;;;;;;;;;;5042262;28;20075;-72
2021/12/25 02:05:18;;;;;;;72.97;19.50;;;;;;;;;;5045738;28;20051;-72
2021/12/25 02:07:43;;;;;;;57.05;19.58;;;;;;;;;;5045062;28;20044;-72
2021/12/25 02:10:11;;;;;;;66.38;19.98;;;;;;;;;;5046238;28;20123;-72
2021/12/25 02:12:36;;;;;;;65.85;19.90;;;;;;;;;;5046682;28;20190;-72
2021/12/25 02:15:08;;;;;;;65.63;19.48;;;;;;;;;;5045841;28;20037;-72
2021/12/25 02:20:21;;;;;;;72.95;19.90;;;;;;;;;;5037741;28;20041;-72
2021/12/25 02:22:48;;;;;;;68.65;19.98;;;;;;;;;;5034893;28;20164;-72
2021/12/25 02:25:14;;;;;;;65.45;19.25;;;;;;;;;;5031931;28;20021;-72
2021/12/25 02:27:39;;;;;;;77.05;19.58;;;;;;;;;;5047938;28;20028;-72
2021/12/25 02:30:06;;;;;;;67.10;19.25;;;;;;;;;;5044104;28;20040;-71
2021/12/25 02:32:32;;;;;;;69.47;19.95;;;;;;;;;;5047061;28;20037;-72
2021/12/25 02:34:57;;;;;;;69.13;20.17;;;;;;;;;;5054953;28;20039;-72
2021/12/25 02:37:23;;;;;;;73.22;19.50;;;;;;;;;;5054449;28;20693;-72
2021/12/25 02:39:48;;;;;;;74.60;19.08;;;;;;;;;;5041014;28;20029;-72
2021/12/25 02:42:14;;;;;;;74.28;18.80;;;;;;;;;;5064740;28;20150;-72
2021/12/25 02:44:40;;;;;;;65.30;19.45;;;;;;;;;;5033436;28;20033;-72
2021/12/25 02:47:10;;;;;;;68.07;19.58;;;;;;;;;;5043602;28;20085;-72
2021/12/25 02:49:36;;;;;;;76.57;20.40;;;;;;;;;;5040473;28;20037;-72
2021/12/25 02:52:05;;;;;;;65.95;20.00;;;;;;;;;;5045178;28;20031;-72
2021/12/25 02:54:30;;;;;;;66.32;19.95;;;;;;;;;;5045916;28;20100;-72
2021/12/25 02:56:55;;;;;;;68.95;21.13;;;;;;;;;;5045893;28;20653;-72
2021/12/25 02:59:21;;;;;;;65.80;18.85;;;;;;;;;;5045067;28;20033;-72
2021/12/25 03:01:46;;;;;;;61.65;18.70;;;;;;;;;;5045650;28;20048;-72
2021/12/25 03:04:11;;;;;;;67.30;21.08;;;;;;;;;;5042206;28;20078;-72
2021/12/25 03:06:38;;;;;;;66.00;19.60;;;;;;;;;;5041924;28;20128;-72
2021/12/25 03:09:05;;;;;;;63.70;19.73;;;;;;;;;;5038253;28;20029;-72
2021/12/25 03:11:31;;;;;;;66.32;19.52;;;;;;;;;;5040531;28;20025;-72
2021/12/25 03:14:13;;;;;;;67.50;20.15;;;;;;;;;;5045341;28;20040;-72
2021/12/25 03:16:39;;;;;;;64.13;20.52;;;;;;;;;;5043454;28;20067;-72
2021/12/25 03:19:08;;;;;;;59.30;19.70;;;;;;;;;;5043909;28;20513;-72
2021/12/25 03:21:34;;;;;;;83.65;22.10;;;;;;;;;;5045420;28;20020;-72
2021/12/25 03:23:59;;;;;;;64.22;19.92;;;;;;;;;;5039997;28;20079;-72
2021/12/25 03:26:24;;;;;;;77.13;20.23;;;;;;;;;;5027678;28;20068;-72
2021/12/25 03:28:52;;;;;;;59.90;19.35;;;;;;;;;;5038529;28;20417;-71
2021/12/25 03:31:21;;;;;;;57.75;18.45;;;;;;;;;;5060792;28;20059;-72
2021/12/25 03:33:49;;;;;;;56.70;18.10;;;;;;;;;;5081676;28;20504;-72
2021/12/25 03:36:15;;;;;;;85.68;20.10;;;;;;;;;;5046588;28;20779;-72
2021/12/25 03:38:40;;;;;;;61.28;18.23;;;;;;;;;;5042952;28;20080;-72
2021/12/25 03:41:07;;;;;;;64.57;19.85;;;;;;;;;;5048938;28;20454;-71
2021/12/25 03:43:34;;;;;;;58.00;18.75;;;;;;;;;;5059557;28;20033;-72
2021/12/25 03:45:59;;;;;;;61.50;18.92;;;;;;;;;;5049319;28;20094;-72
2021/12/25 03:58:46;;;;;;;50.80;17.30;;;;;;;;;;5037774;28;20086;-72
2021/12/25 04:06:32;;;;;;;56.50;16.95;;;;;;;;;;5041953;28;20026;-72
2021/12/25 04:08:58;;;;;;;50.45;15.65;;;;;;;;;;5039677;28;20566;-72
2021/12/25 04:11:33;;;;;;;52.60;16.00;;;;;;;;;;5038523;28;20736;-71
2021/12/25 04:13:59;;;;;;;52.17;15.43;;;;;;;;;;5039776;28;20041;-72
2021/12/25 04:16:26;;;;;;;46.92;14.88;;;;;;;;;;5041031;28;20414;-72
2021/12/25 04:18:52;;;;;;;41.58;15.23;;;;;;;;;;5038192;28;20032;-72
2021/12/25 04:21:17;;;;;;;41.17;14.32;;;;;;;;;;5039558;28;20481;-72
2021/12/25 04:23:43;;;;;;;45.92;15.25;;;;;;;;;;5041567;28;20044;-72
2021/12/25 04:26:09;;;;;;;49.03;16.08;;;;;;;;;;5047174;28;20048;-72
2021/12/25 04:28:44;;;;;;;41.45;14.55;;;;;;;;;;5046092;28;20029;-72
2021/12/25 04:50:30;;;;;;;33.85;12.52;;;;;;;;;;5062253;28;20040;-72
2021/12/25 05:03:59;;;;;;;;;;;;;;;;;;5063050;28;20067;-72
2021/12/25 05:06:24;;;;;;;35.53;11.50;;;;;;;;;;5055406;28;19963;-71
2021/12/25 05:08:54;;;;;;;28.08;10.95;;;;;;;;;;5059779;28;20135;-72
2021/12/25 05:11:21;;;;;;;32.60;11.93;;;;;;;;;;5036842;28;20063;-72
2021/12/25 05:13:49;;;;;;;31.65;11.32;;;;;;;;;;5057931;28;20032;-72
2021/12/25 05:16:14;;;;;;;31.77;11.30;;;;;;;;;;5056477;28;20035;-72
2021/12/25 05:18:40;;;;;;;37.50;12.05;;;;;;;;;;5057313;28;20417;-72
2021/12/25 05:21:07;;;;;;;29.98;12.00;;;;;;;;;;5065797;28;20044;-72
2021/12/25 05:23:32;;;;;;;34.20;11.27;;;;;;;;;;5063536;28;20424;-72
2021/12/25 05:25:57;;;;;;;30.70;10.00;;;;;;;;;;5066002;28;20049;-71
2021/12/25 05:28:25;;;;;;;29.08;10.68;;;;;;;;;;5039000;28;20033;-72
2021/12/25 05:30:55;;;;;;;25.20;9.48;;;;;;;;;;5061494;28;20027;-72
2021/12/25 05:33:21;;;;;;;24.20;9.43;;;;;;;;;;5058677;28;20040;-72
2021/12/25 05:35:47;;;;;;;26.27;9.32;;;;;;;;;;5059823;28;20127;-72
2021/12/25 05:38:14;;;;;;;22.70;9.23;;;;;;;;;;5057913;28;20089;-71
2021/12/25 05:40:42;;;;;;;22.90;9.02;;;;;;;;;;5061708;28;20445;-72
2021/12/25 05:43:08;;;;;;;27.52;9.00;;;;;;;;;;5063729;28;20038;-72
2021/12/25 05:45:33;;;;;;;23.73;8.50;;;;;;;;;;5037199;28;20029;-72
2021/12/25 05:47:59;;;;;;;28.40;9.80;;;;;;;;;;5033110;28;20049;-72
2021/12/25 05:50:25;;;;;;;25.02;10.15;;;;;;;;;;5034095;28;20528;-71
2021/12/25 05:52:51;;;;;;;30.23;10.25;;;;;;;;;;5027912;28;20040;-71
2021/12/25 05:55:18;;;;;;;30.75;10.52;;;;;;;;;;5036952;28;20476;-72
2021/12/25 05:57:43;;;;;;;24.10;9.75;;;;;;;;;;5039757;28;20068;-72
2021/12/25 06:00:10;;;;;;;25.95;10.00;;;;;;;;;;5044868;28;20045;-72
2021/12/25 06:02:36;;;;;;;31.92;11.35;;;;;;;;;;5043143;28;20060;-72
2021/12/25 06:05:04;;;;;;;32.92;11.10;;;;;;;;;;5049787;28;20521;-72
2021/12/25 06:07:31;;;;;;;30.38;11.07;;;;;;;;;;5055754;28;20041;-72
2021/12/25 06:09:56;;;;;;;27.88;9.68;;;;;;;;;;5059430;28;20037;-72
2021/12/25 06:12:22;;;;;;;29.65;10.52;;;;;;;;;;5061375;28;20083;-72
2021/12/25 06:14:48;;;;;;;34.80;11.68;;;;;;;;;;5052094;28;20123;-72
2021/12/25 06:17:13;;;;;;;32.95;12.00;;;;;;;;;;5057738;28;20933;-72
2021/12/25 06:19:39;;;;;;;35.83;11.20;;;;;;;;;;5053192;28;20037;-72
2021/12/25 06:22:04;;;;;;;26.90;10.43;;;;;;;;;;5058431;28;20025;-71
2021/12/25 06:24:30;;;;;;;27.60;10.65;;;;;;;;;;5054569;28;20028;-72
2021/12/25 06:26:56;;;;;;;29.35;10.93;;;;;;;;;;5060577;28;20046;-72
2021/12/25 06:29:23;;;;;;;29.48;10.10;;;;;;;;;;5061362;28;20042;-72
2021/12/25 06:31:50;;;;;;;27.10;9.43;;;;;;;;;;5058240;28;20047;-72
2021/12/25 06:34:15;;;;;;;27.25;10.75;;;;;;;;;;5055642;28;20041;-72
2021/12/25 06:36:41;;;;;;;26.23;10.13;;;;;;;;;;5050205;28;20020;-72
2021/12/25 06:39:10;;;;;;;26.25;9.10;;;;;;;;;;5057254;28;20025;-72
2021/12/25 06:41:36;;;;;;;23.83;9.13;;;;;;;;;;5042555;28;20048;-72
2021/12/25 06:44:01;;;;;;;26.40;10.90;;;;;;;;;;5038417;28;20049;-72
2021/12/25 06:46:27;;;;;;;25.40;9.35;;;;;;;;;;5039193;28;20055;-72
2021/12/25 06:48:52;;;;;;;23.88;9.30;;;;;;;;;;5030265;28;20036;-72
2021/12/25 06:51:18;;;;;;;18.05;8.38;;;;;;;;;;5021178;28;20051;-72
2021/12/25 06:53:43;;;;;;;17.75;8.07;;;;;;;;;;5019547;28;20051;-72
2021/12/25 06:56:08;;;;;;;15.38;6.88;;;;;;;;;;5023438;28;20079;-72
2021/12/25 06:58:34;;;;;;;14.05;6.35;;;;;;;;;;5015468;28;20411;-72
2021/12/25 07:00:59;;;;;;;14.07;6.43;;;;;;;;;;5000841;28;20033;-72
2021/12/25 07:03:26;;;;;;;16.35;6.60;;;;;;;;;;5016927;28;20174;-72
2021/12/25 07:05:52;;;;;;;16.48;7.32;;;;;;;;;;5013181;28;20038;-72
2021/12/25 07:08:17;;;;;;;12.88;5.88;;;;;;;;;;5014114;28;20095;-72
2021/12/25 07:10:43;;;;;;;13.07;5.28;;;;;;;;;;4998718;28;20052;-72
2021/12/25 07:13:15;;;;;;;12.27;5.47;;;;;;;;;;5014361;28;20624;-72
2021/12/25 07:15:40;;;;;;;11.90;5.70;;;;;;;;;;5034386;28;20029;-72
2021/12/25 07:18:06;;;;;;;10.88;4.88;;;;;;;;;;5030469;28;20288;-72
2021/12/25 07:20:31;;;;;;;12.48;5.40;;;;;;;;;;5037691;28;20036;-72
2021/12/25 07:22:57;;;;;;;11.52;5.20;;;;;;;;;;5037036;28;20041;-72
2021/12/25 07:25:24;;;;;;;12.48;5.97;;;;;;;;;;5031704;28;20045;-72
2021/12/25 07:27:50;;;;;;;14.68;5.95;;;;;;;;;;5036768;28;20028;-72
2021/12/25 07:30:15;;;;;;;14.30;6.00;;;;;;;;;;5037904;28;20445;-72
2021/12/25 07:32:41;;;;;;;12.00;5.63;;;;;;;;;;5022031;28;20041;-72
2021/12/25 07:35:06;;;;;;;10.90;5.40;;;;;;;;;;5017077;28;20041;-72
2021/12/25 07:37:33;;;;;;;11.05;5.20;;;;;;;;;;5018014;28;20086;-71
2021/12/25 07:40:00;;;;;;;13.55;5.97;;;;;;;;;;5036125;28;20041;-72
2021/12/25 07:42:26;;;;;;;16.10;6.13;;;;;;;;;;5032155;28;20024;-72
2021/12/25 07:44:55;;;;;;;13.32;6.20;;;;;;;;;;5034883;28;20046;-72
2021/12/25 07:47:22;;;;;;;13.52;5.30;;;;;;;;;;5035950;28;20412;-71
2021/12/25 07:49:47;;;;;;;16.45;5.75;;;;;;;;;;5038351;28;20050;-72
2021/12/25 07:52:13;;;;;;;14.93;5.40;;;;;;;;;;5035390;28;20070;-71
2021/12/25 07:54:38;;;;;;;13.77;5.97;;;;;;;;;;5031380;28;20033;-71
2021/12/25 07:57:04;;;;;;;12.93;5.90;;;;;;;;;;5033859;28;20052;-71
2021/12/25 07:59:29;;;;;;;12.45;5.35;;;;;;;;;;5038926;28;20057;-72
2021/12/25 08:01:56;;;;;;;10.55;4.70;;;;;;;;;;5030344;28;20135;-71
2021/12/25 08:04:22;;;;;;;14.63;6.13;;;;;;;;;;5016918;28;20181;-71
2021/12/25 08:06:47;;;;;;;18.70;4.82;;;;;;;;;;5001229;28;20133;-70
2021/12/25 08:09:12;;;;;;;12.98;5.40;;;;;;;;;;5021625;28;20500;-71
2021/12/25 08:11:38;;;;;;;12.80;5.53;;;;;;;;;;5007051;28;20084;-71
2021/12/25 08:14:05;;;;;;;12.75;5.43;;;;;;;;;;5020056;28;20059;-71
2021/12/25 08:16:30;;;;;;;13.27;6.07;;;;;;;;;;5022083;28;20124;-71
2021/12/25 08:18:55;;;;;;;13.80;6.78;;;;;;;;;;5035529;28;20884;-70
2021/12/25 08:21:21;;;;;;;11.55;5.65;;;;;;;;;;5037343;28;20565;-71
2021/12/25 08:23:47;;;;;;;12.05;5.18;;;;;;;;;;5038562;28;20064;-71
2021/12/25 08:26:13;;;;;;;10.15;4.78;;;;;;;;;;5038622;28;20032;-72
2021/12/25 08:28:38;;;;;;;11.93;5.60;;;;;;;;;;5037756;28;20051;-71
2021/12/25 08:31:03;;;;;;;9.38;4.60;;;;;;;;;;5036837;28;20025;-71
2021/12/25 08:33:29;;;;;;;15.45;6.25;;;;;;;;;;5042070;28;20017;-71
2021/12/25 08:35:55;;;;;;;13.55;6.18;;;;;;;;;;5042891;28;20120;-71
2021/12/25 08:38:20;;;;;;;11.85;4.88;;;;;;;;;;5034189;28;20037;-71
2021/12/25 08:40:46;;;;;;;13.15;5.60;;;;;;;;;;5040472;28;20600;-71
2021/12/25 08:43:14;;;;;;;13.65;5.60;;;;;;;;;;5033231;28;20033;-71
2021/12/25 08:45:48;;;;;;;13.68;5.85;;;;;;;;;;5036330;28;20041;-71
2021/12/25 08:48:18;;;;;;;13.63;5.75;;;;;;;;;;5040361;28;20064;-71
2021/12/25 08:50:52;;;;;;;17.00;7.20;;;;;;;;;;5045992;28;20052;-71
2021/12/25 08:53:20;;;;;;;11.65;5.80;;;;;;;;;;5032499;28;20049;-72
2021/12/25 08:55:47;;;;;;;15.15;6.38;;;;;;;;;;5038297;28;20445;-72
2021/12/25 08:58:13;;;;;;;13.05;5.93;;;;;;;;;;5037581;28;20118;-71
2021/12/25 09:00:39;;;;;;;15.65;6.68;;;;;;;;;;5041962;28;20098;-72
2021/12/25 09:03:04;;;;;;;9.07;3.83;;;;;;;;;;5045239;28;20457;-72
2021/12/25 09:05:30;;;;;;;15.02;6.40;;;;;;;;;;5036767;28;20068;-72
2021/12/25 09:07:55;;;;;;;10.30;4.72;;;;;;;;;;5040636;28;20117;-72
2021/12/25 09:10:22;;;;;;;11.50;5.60;;;;;;;;;;5046770;28;20029;-72
2021/12/25 09:12:49;;;;;;;14.82;6.50;;;;;;;;;;5046342;28;20024;-72
2021/12/25 09:15:15;;;;;;;15.20;5.90;;;;;;;;;;5030630;28;20034;-72
2021/12/25 09:17:42;;;;;;;14.02;6.53;;;;;;;;;;5035873;28;20044;-72
2021/12/25 09:20:09;;;;;;;11.38;5.22;;;;;;;;;;5036434;28;20098;-72
2021/12/25 09:22:34;;;;;;;12.60;5.25;;;;;;;;;;5037050;28;20041;-72
2021/12/25 09:25:00;;;;;;;10.00;4.70;;;;;;;;;;5034247;28;20020;-72
2021/12/25 09:27:25;;;;;;;10.07;4.90;;;;;;;;;;5035842;28;20063;-71
2021/12/25 09:29:51;;;;;;;10.48;5.00;;;;;;;;;;5042707;28;20045;-71
2021/12/25 09:32:16;;;;;;;11.55;5.45;;;;;;;;;;5036847;28;20091;-72
2021/12/25 09:34:41;;;;;;;13.02;5.82;;;;;;;;;;5036001;28;20034;-72
2021/12/25 09:37:07;;;;;;;10.98;5.25;;;;;;;;;;5035380;28;20054;-71
2021/12/25 09:39:33;;;;;;;11.05;5.28;;;;;;;;;;5044208;28;20036;-72
2021/12/25 09:41:59;;;;;;;11.77;5.25;;;;;;;;;;5026977;28;20045;-72
2021/12/25 09:44:24;;;;;;;14.45;6.03;;;;;;;;;;5027471;28;20041;-72
2021/12/25 09:46:50;;;;;;;10.80;5.10;;;;;;;;;;5041150;28;20390;-71
2021/12/25 09:49:16;;;;;;;10.95;5.10;;;;;;;;;;5052356;28;20044;-72
2021/12/25 09:51:41;;;;;;;11.32;5.55;;;;;;;;;;5054974;28;20047;-72
2021/12/25 09:54:10;;;;;;;7.82;3.92;;;;;;;;;;5061454;28;20060;-72
2021/12/25 09:56:39;;;;;;;11.27;5.63;;;;;;;;;;5063166;28;20033;-72
2021/12/25 09:59:06;;;;;;;10.07;5.78;;;;;;;;;;5063208;28;20051;-72
2021/12/25 10:01:37;;;;;;;11.63;5.38;;;;;;;;;;5060309;28;20036;-72
2021/12/25 10:04:04;;;;;;;11.43;5.68;;;;;;;;;;5056651;28;20024;-71
2021/12/25 10:06:32;;;;;;;11.75;5.90;;;;;;;;;;5059175;28;20024;-72
2021/12/25 10:08:57;;;;;;;18.42;8.13;;;;;;;;;;5056819;28;20052;-72
2021/12/25 10:11:23;;;;;;;16.08;7.18;;;;;;;;;;5049182;28;20025;-72
2021/12/25 10:13:48;;;;;;;15.15;7.57;;;;;;;;;;5025025;28;20059;-72
2021/12/25 10:16:26;;;;;;;16.45;7.78;;;;;;;;;;5045063;28;20023;-72
2021/12/25 10:18:54;;;;;;;16.67;7.82;;;;;;;;;;5031465;28;20384;-71
2021/12/25 10:21:19;;;;;;;12.38;6.40;;;;;;;;;;5032368;28;20072;-72
2021/12/25 10:24:00;;;;;;;11.38;6.50;;;;;;;;;;5032236;28;20141;-72
2021/12/25 10:26:25;;;;;;;10.57;5.55;;;;;;;;;;5030498;28;20047;-72
2021/12/25 10:28:51;;;;;;;13.10;6.80;;;;;;;;;;5030589;28;20037;-72
2021/12/25 10:31:17;;;;;;;11.60;5.90;;;;;;;;;;5028706;28;20406;-72
2021/12/25 10:33:52;;;;;;;11.60;5.78;;;;;;;;;;5025309;28;20035;-71
2021/12/25 10:36:35;;;;;;;12.73;6.18;;;;;;;;;;5026525;28;20074;-72
2021/12/25 10:39:10;;;;;;;14.55;6.28;;;;;;;;;;5029434;28;20161;-72
2021/12/25 10:41:39;;;;;;;15.30;8.27;;;;;;;;;;5030667;28;20621;-72
2021/12/25 10:44:10;;;;;;;14.77;6.18;;;;;;;;;;5033933;28;20095;-71
2021/12/25 10:46:59;;;;;;;14.25;7.40;;;;;;;;;;5028305;28;20053;-70
2021/12/25 10:49:33;;;;;;;13.25;7.00;;;;;;;;;;5029717;28;20044;-71
2021/12/25 10:52:09;;;;;;;13.60;6.75;;;;;;;;;;5019553;28;20037;-75
2021/12/25 10:54:43;;;;;;;14.02;7.03;;;;;;;;;;5053518;28;20024;-75
2021/12/25 10:57:09;;;;;;;15.25;7.63;;;;;;;;;;5064383;28;20035;-74
2021/12/25 10:59:48;;;;;;;14.02;7.13;;;;;;;;;;5056761;28;20573;-72
2021/12/25 11:02:35;;;;;;;15.48;7.82;;;;;;;;;;5051743;28;20114;-75
2021/12/25 11:05:14;;;;;;;14.40;7.10;;;;;;;;;;5055427;28;20585;-72
2021/12/25 11:07:39;;;;;;;16.75;7.88;;;;;;;;;;5056036;28;20028;-74
2021/12/25 11:10:08;;;;;;;19.40;8.93;;;;;;;;;;5062603;28;20848;-75
2021/12/25 11:12:34;;;;;;;15.18;7.97;;;;;;;;;;5055830;28;20103;-76
2021/12/25 11:15:20;;;;;;;15.82;8.07;;;;;;;;;;5062693;28;20127;-76
2021/12/25 11:17:51;;;;;;;14.10;7.40;;;;;;;;;;5057786;28;20119;-76
2021/12/25 11:20:26;;;;;;;15.45;8.05;;;;;;;;;;5057347;28;20119;-76
2021/12/25 11:22:55;;;;;;;14.68;7.55;;;;;;;;;;5053967;28;20036;-76
2021/12/25 11:25:25;;;;;;;16.58;7.95;;;;;;;;;;5069075;28;20383;-76
2021/12/25 11:27:51;;;;;;;17.08;7.70;;;;;;;;;;5057856;28;20024;-77
2021/12/25 11:30:18;;;;;;;17.65;8.88;;;;;;;;;;5056758;28;20740;-76
2021/12/25 11:32:45;;;;;;;19.67;9.77;;;;;;;;;;5055407;28;20037;-78
2021/12/25 11:35:11;;;;;;;15.55;7.95;;;;;;;;;;5053827;28;20025;-79
2021/12/25 11:37:37;;;;;;;16.17;7.55;;;;;;;;;;5055725;28;20170;-79
2021/12/25 11:40:03;;;;;;;13.90;7.90;;;;;;;;;;5060207;28;20036;-78
2021/12/25 11:42:29;;;;;;;15.10;7.90;;;;;;;;;;5056099;28;20052;-78
2021/12/25 11:44:55;;;;;;;15.65;7.53;;;;;;;;;;5048403;28;20041;-78
2021/12/25 11:47:33;;;;;;;18.08;8.95;;;;;;;;;;5046229;28;20422;-79
2021/12/25 11:50:02;;;;;;;18.05;7.97;;;;;;;;;;5037168;28;20056;-78
2021/12/25 11:52:33;;;;;;;18.40;9.10;;;;;;;;;;5051774;28;20040;-79
2021/12/25 11:55:30;;;;;;;19.65;9.30;;;;;;;;;;5051983;28;20016;-78
2021/12/25 12:00:44;;;;;;;21.90;9.50;;;;;;;;;;5035190;28;20027;-75
2021/12/25 12:03:42;;;;;;;20.02;10.30;;;;;;;;;;5035147;28;20047;-77
2021/12/25 12:06:07;;;;;;;16.13;7.57;;;;;;;;;;5046610;28;20068;-76
2021/12/25 12:08:56;;;;;;;20.88;9.70;;;;;;;;;;5047549;28;20419;-78
2021/12/25 12:11:25;;;;;;;19.25;8.23;;;;;;;;;;5038276;28;20029;-77
2021/12/25 12:14:21;;;;;;;23.75;11.07;;;;;;;;;;5034772;28;20036;-78
2021/12/25 12:16:50;;;;;;;19.60;8.82;;;;;;;;;;5042295;28;20098;-77
2021/12/25 12:19:31;;;;;;;20.58;10.45;;;;;;;;;;5037069;28;20045;-77
2021/12/25 12:22:30;;;;;;;17.55;8.85;;;;;;;;;;5033526;28;20511;-77
2021/12/25 12:28:02;;;;;;;18.05;8.48;;;;;;;;;;5052445;28;20120;-78
2021/12/25 12:30:30;;;;;;;18.48;8.20;;;;;;;;;;5034009;28;20028;-77
2021/12/25 12:32:56;;;;;;;22.17;10.00;;;;;;;;;;5048259;28;20041;-77
2021/12/25 12:35:41;;;;;;;20.95;10.02;;;;;;;;;;5037243;28;20513;-77
2021/12/25 12:41:15;;;;;;;17.83;9.25;;;;;;;;;;5041263;28;20037;-78
2021/12/25 12:44:04;;;;;;;27.27;11.10;;;;;;;;;;5053301;28;20051;-77
2021/12/25 12:46:53;;;;;;;27.83;13.02;;;;;;;;;;5045976;28;20069;-78
2021/12/25 12:49:50;;;;;;;29.02;12.00;;;;;;;;;;5001296;28;20041;-77
2021/12/25 12:52:34;;;;;;;32.00;12.98;;;;;;;;;;5020816;28;20065;-77
2021/12/25 12:55:01;;;;;;;;;;;;;;;;;;5026223;28;20785;-77
2021/12/25 12:57:31;;;;;;;16.20;7.85;;;;;;;;;;5007076;28;19913;-78
2021/12/25 13:00:08;;;;;;;24.38;10.63;;;;;;;;;;5008062;28;20057;-78
2021/12/25 13:02:46;;;;;;;26.23;12.55;;;;;;;;;;5033750;28;20041;-77
2021/12/25 13:05:12;;;;;;;20.92;9.30;;;;;;;;;;5015507;28;20080;-77
2021/12/25 13:07:41;;;;;;;28.05;10.90;;;;;;;;;;5009405;28;20745;-77
2021/12/25 13:10:26;;;;;;;26.65;11.90;;;;;;;;;;5017479;28;20025;-77
2021/12/25 13:12:57;;;;;;;24.02;11.40;;;;;;;;;;5010458;28;20033;-77
2021/12/25 13:15:27;;;;;;;18.33;9.15;;;;;;;;;;5011819;28;20056;-77
2021/12/25 13:17:59;;;;;;;21.88;9.70;;;;;;;;;;5025388;28;20538;-77
2021/12/25 13:20:54;;;;;;;25.70;11.13;;;;;;;;;;5030623;28;20762;-77
2021/12/25 13:23:23;;;;;;;21.02;9.10;;;;;;;;;;5013983;28;20292;-77
2021/12/25 13:25:57;;;;;;;26.65;11.73;;;;;;;;;;5031236;28;20538;-77
2021/12/25 13:28:24;;;;;;;21.83;9.63;;;;;;;;;;5029835;28;20048;-77
2021/12/25 13:30:58;;;;;;;31.95;12.73;;;;;;;;;;5018189;28;20057;-77
2021/12/25 13:33:26;;;;;;;33.55;15.43;;;;;;;;;;5009819;28;20046;-78
2021/12/25 13:36:00;;;;;;;26.20;12.38;;;;;;;;;;5019693;28;20092;-78
2021/12/25 13:38:26;;;;;;;39.05;14.50;;;;;;;;;;5010909;28;20049;-78
2021/12/25 13:40:54;;;;;;;26.65;12.38;;;;;;;;;;5015470;28;20045;-77
2021/12/25 13:43:20;;;;;;;29.40;12.18;;;;;;;;;;5011865;28;20095;-78
2021/12/25 13:45:45;;;;;;;35.00;13.80;;;;;;;;;;5027572;28;20037;-78
2021/12/25 13:48:11;;;;;;;29.42;12.40;;;;;;;;;;5043173;28;20041;-77
2021/12/25 13:50:37;;;;;;;26.80;12.45;;;;;;;;;;5036708;28;20045;-78
2021/12/25 13:53:17;;;;;;;33.17;13.75;;;;;;;;;;5025925;28;20983;-79
2021/12/25 13:55:44;;;;;;;34.90;13.55;;;;;;;;;;5039336;28;20033;-79
2021/12/25 13:58:12;;;;;;;30.98;13.45;;;;;;;;;;5051123;28;20025;-79
2021/12/25 14:00:43;;;;;;;35.47;16.33;;;;;;;;;;5054602;28;20090;-79
2021/12/25 14:03:13;;;;;;;20.17;9.07;;;;;;;;;;5039825;28;20035;-79
2021/12/25 14:05:44;;;;;;;31.52;13.00;;;;;;;;;;5022174;28;20040;-78
2021/12/25 14:08:13;;;;;;;37.38;16.73;;;;;;;;;;5038209;28;20037;-78
2021/12/25 14:10:41;;;;;;;37.15;15.88;;;;;;;;;;5037933;28;20051;-79
2021/12/25 14:13:16;;;;;;;37.97;15.93;;;;;;;;;;5040907;28;20724;-78
2021/12/25 14:15:45;;;;;;;39.55;14.82;;;;;;;;;;5034156;28;20037;-79
2021/12/25 14:18:11;;;;;;;33.67;15.18;;;;;;;;;;5049367;28;20037;-78
2021/12/25 14:20:39;;;;;;;40.83;16.40;;;;;;;;;;5038786;28;20099;-79
2021/12/25 14:23:17;;;;;;;33.95;15.02;;;;;;;;;;5034939;28;20033;-77
2021/12/25 14:25:54;;;;;;;40.80;16.80;;;;;;;;;;5031668;28;20079;-78
2021/12/25 14:28:22;;;;;;;44.45;17.23;;;;;;;;;;5031940;28;20037;-79
2021/12/25 14:30:59;;;;;;;35.03;15.48;;;;;;;;;;5031348;28;20119;-78
2021/12/25 14:33:25;;;;;;;26.60;10.73;;;;;;;;;;5024536;28;20060;-80
2021/12/25 14:35:50;;;;;;;35.10;13.23;;;;;;;;;;5026057;28;20049;-81
2021/12/25 14:38:16;;;;;;;41.75;16.63;;;;;;;;;;5024312;28;20080;-78
2021/12/25 14:40:46;;;;;;;31.23;12.02;;;;;;;;;;5028921;28;20568;-77
2021/12/25 14:43:15;;;;;;;31.85;12.85;;;;;;;;;;5036609;28;20123;-73
2021/12/25 14:45:47;;;;;;;40.80;15.32;;;;;;;;;;5023613;28;21433;-76
2021/12/25 14:48:23;;;;;;;37.65;14.60;;;;;;;;;;5023893;28;20148;-78
2021/12/25 14:50:54;;;;;;;40.03;15.90;;;;;;;;;;5032169;28;20044;-80
2021/12/25 14:53:20;;;;;;;39.47;15.55;;;;;;;;;;5053109;28;20056;-80
2021/12/25 14:55:49;;;;;;;39.53;14.77;;;;;;;;;;5050067;28;20518;-76
2021/12/25 14:58:24;;;;;;;42.47;15.20;;;;;;;;;;5037138;28;20528;-74
2021/12/25 15:01:02;;;;;;;43.22;16.52;;;;;;;;;;5032355;28;20082;-74
2021/12/25 15:03:28;;;;;;;45.67;15.68;;;;;;;;;;5023041;28;20072;-73
2021/12/25 15:05:55;;;;;;;42.03;15.98;;;;;;;;;;5048755;28;20093;-74
2021/12/25 15:08:28;;;;;;;44.00;16.50;;;;;;;;;;5051305;28;20048;-74
2021/12/25 15:10:56;;;;;;;39.42;16.23;;;;;;;;;;5051230;28;20051;-74
2021/12/25 15:13:23;;;;;;;38.30;14.30;;;;;;;;;;5051089;28;20091;-73
2021/12/25 15:15:52;;;;;;;41.55;16.85;;;;;;;;;;5051606;28;20487;-73
2021/12/25 15:18:26;;;;;;;47.33;18.25;;;;;;;;;;5052934;28;20102;-74
2021/12/25 15:21:19;;;;;;;39.90;16.67;;;;;;;;;;5050370;28;20747;-74
2021/12/25 15:23:46;;;;;;;46.03;18.83;;;;;;;;;;5056547;28;20046;-74
2021/12/25 15:26:14;;;;;;;46.85;15.65;;;;;;;;;;5057315;28;20060;-71
2021/12/25 15:28:59;;;;;;;46.85;17.48;;;;;;;;;;5055291;28;20051;-76
2021/12/25 15:31:28;;;;;;;52.33;17.75;;;;;;;;;;5053552;28;20048;-75
2021/12/25 15:33:57;;;;;;;49.58;18.92;;;;;;;;;;5056183;28;20082;-75
2021/12/25 15:36:25;;;;;;;46.83;17.33;;;;;;;;;;5052740;28;20036;-75
2021/12/25 15:38:51;;;;;;;45.03;16.88;;;;;;;;;;5061423;28;20097;-75
2021/12/25 15:41:17;;;;;;;50.95;19.73;;;;;;;;;;5043979;28;20029;-75
2021/12/25 15:43:44;;;;;;;35.90;14.23;;;;;;;;;;5032071;28;20874;-75
2021/12/25 15:46:11;;;;;;;44.90;15.55;;;;;;;;;;5028387;28;20059;-75
2021/12/25 15:48:37;;;;;;;44.63;16.48;;;;;;;;;;5044660;28;20501;-75
2021/12/25 15:51:05;;;;;;;34.35;12.63;;;;;;;;;;5043459;28;20047;-75
2021/12/25 15:53:31;;;;;;;45.45;18.25;;;;;;;;;;5047190;28;20048;-75